createdAt,value
2019-05-28T00:02:04.290Z,1.67
2019-05-28T00:04:34.267Z,1.93
2019-05-28T00:07:03.907Z,1.50
2019-05-28T00:09:33.613Z,1.80
2019-05-28T00:12:03.466Z,1.40
2019-05-28T00:14:33.053Z,1.60
2019-05-28T00:17:02.897Z,2.00
2019-05-28T00:19:32.787Z,1.80
2019-05-28T00:22:02.499Z,1.60
2019-05-28T00:24:32.170Z,2.13
2019-05-28T00:27:02.048Z,1.80
2019-05-28T00:29:33.956Z,1.97
2019-05-28T00:32:03.800Z,1.60
2019-05-28T00:34:33.482Z,1.87
2019-05-28T00:37:03.445Z,1.60
2019-05-28T00:39:33.294Z,1.43
2019-05-28T00:42:02.838Z,1.73
2019-05-28T00:44:32.542Z,2.00
2019-05-28T00:47:02.113Z,1.50
2019-05-28T00:49:31.751Z,1.50
2019-05-28T00:52:01.935Z,1.80
2019-05-28T00:54:31.428Z,1.50
2019-05-28T00:57:02.211Z,1.40
2019-05-28T00:59:33.693Z,1.50
2019-05-28T01:02:03.246Z,1.40
2019-05-28T01:04:32.945Z,1.33
2019-05-28T01:07:02.790Z,1.80
2019-05-28T01:09:32.862Z,1.80
2019-05-28T01:12:02.661Z,1.57
2019-05-28T01:14:32.491Z,1.77
2019-05-28T01:17:02.428Z,1.80
2019-05-28T01:19:31.931Z,1.60
2019-05-28T01:22:01.722Z,1.50
2019-05-28T01:24:31.590Z,1.53
2019-05-28T01:27:01.297Z,1.50
2019-05-28T01:29:31.623Z,1.63
2019-05-28T01:32:02.027Z,2.00
2019-05-28T01:34:32.045Z,1.80
2019-05-28T01:37:02.001Z,2.03
2019-05-28T01:39:33.297Z,1.60
2019-05-28T01:42:03.343Z,1.70
2019-05-28T01:44:33.075Z,1.73
2019-05-28T01:47:03.189Z,1.73
2019-05-28T01:49:33.194Z,1.80
2019-05-28T01:52:02.706Z,2.03
2019-05-28T01:54:32.457Z,1.77
2019-05-28T01:57:02.242Z,1.80
2019-05-28T01:59:32.425Z,1.60
2019-05-28T02:02:03.223Z,1.53
2019-05-28T02:04:33.105Z,1.63
2019-05-28T02:07:02.858Z,1.63
2019-05-28T02:09:32.574Z,1.87
2019-05-28T02:12:02.194Z,2.10
2019-05-28T02:14:31.828Z,1.73
2019-05-28T02:17:01.659Z,1.60
2019-05-28T02:19:31.189Z,1.83
2019-05-28T02:22:00.906Z,1.93
2019-05-28T02:24:30.537Z,1.77
2019-05-28T02:26:59.937Z,1.80
2019-05-28T02:29:29.485Z,2.13
2019-05-28T02:31:59.232Z,2.00
2019-05-28T02:34:28.822Z,2.03
2019-05-28T02:37:00.151Z,2.20
2019-05-28T02:39:29.941Z,1.80
2019-05-28T02:41:59.707Z,2.13
2019-05-28T02:44:29.479Z,1.80
2019-05-28T02:46:59.426Z,2.10
2019-05-28T02:49:28.995Z,1.97
2019-05-28T02:51:58.959Z,2.27
2019-05-28T02:54:28.813Z,2.13
2019-05-28T02:57:00.679Z,1.97
2019-05-28T02:59:33.472Z,2.37
2019-05-28T03:02:05.188Z,2.00
2019-05-28T03:04:38.048Z,2.47
2019-05-28T03:07:10.467Z,1.77
2019-05-28T03:09:46.659Z,2.00
2019-05-28T03:12:16.419Z,2.20
2019-05-28T03:14:46.338Z,1.83
2019-05-28T03:17:17.221Z,2.30
2019-05-28T03:19:48.698Z,2.33
2019-05-28T03:22:20.451Z,2.73
2019-05-28T03:24:50.861Z,2.37
2019-05-28T03:27:21.058Z,1.90
2019-05-28T03:29:51.770Z,2.43
2019-05-28T03:32:21.861Z,2.37
2019-05-28T03:34:51.865Z,2.97
2019-05-28T03:37:22.109Z,3.07
2019-05-28T03:39:54.226Z,2.53
2019-05-28T03:42:24.292Z,2.60
2019-05-28T03:44:55.419Z,3.07
2019-05-28T03:47:25.325Z,2.87
2019-05-28T03:49:55.133Z,2.90
2019-05-28T03:52:26.092Z,2.57
2019-05-28T03:54:55.876Z,2.57
2019-05-28T03:57:25.813Z,2.70
2019-05-28T03:59:57.960Z,3.30
2019-05-28T04:02:28.708Z,2.47
2019-05-28T04:04:58.631Z,3.50
2019-05-28T04:07:28.386Z,2.80
2019-05-28T04:09:58.014Z,2.70
2019-05-28T04:12:28.210Z,3.00
2019-05-28T04:14:57.854Z,2.83
2019-05-28T04:17:27.430Z,3.20
2019-05-28T04:19:57.443Z,2.97
2019-05-28T04:22:27.237Z,2.70
2019-05-28T04:24:57.591Z,2.87
2019-05-28T04:27:27.445Z,3.30
2019-05-28T04:29:57.829Z,3.03
2019-05-28T04:32:39.945Z,2.93
2019-05-28T04:35:05.361Z,3.53
2019-05-28T04:37:34.995Z,2.80
2019-05-28T04:40:05.682Z,2.57
2019-05-28T04:42:35.596Z,3.20
2019-05-28T04:45:05.684Z,2.67
2019-05-28T04:47:35.180Z,2.67
2019-05-28T04:50:05.354Z,3.07
2019-05-28T04:52:35.056Z,3.20
2019-05-28T04:55:07.556Z,3.53
2019-05-28T04:57:37.372Z,3.20
2019-05-28T05:00:08.699Z,2.70
2019-05-28T05:02:38.715Z,2.73
2019-05-28T05:05:10.049Z,2.80
2019-05-28T05:07:40.480Z,2.43
2019-05-28T05:10:12.384Z,3.10
2019-05-28T05:12:41.883Z,2.60
2019-05-28T05:15:11.971Z,3.03
2019-05-28T05:17:41.789Z,2.47
2019-05-28T05:20:11.582Z,3.30
2019-05-28T05:22:41.335Z,2.80
2019-05-28T05:25:11.948Z,2.87
2019-05-28T05:27:41.933Z,2.50
2019-05-28T05:30:13.248Z,2.50
2019-05-28T05:32:43.364Z,2.00
2019-05-28T05:35:14.986Z,3.13
2019-05-28T05:37:47.425Z,2.57
2019-05-28T05:40:18.294Z,3.20
2019-05-28T05:42:48.396Z,2.60
2019-05-28T05:45:18.380Z,2.53
2019-05-28T05:47:48.436Z,2.80
2019-05-28T05:50:21.480Z,2.80
2019-05-28T05:52:51.741Z,2.17
2019-05-28T05:55:23.077Z,2.60
2019-05-28T05:57:52.766Z,3.13
2019-05-28T06:00:22.617Z,2.70
2019-05-28T06:02:57.653Z,2.90
2019-05-28T06:05:28.917Z,2.33
2019-05-28T06:08:04.841Z,2.57
2019-05-28T06:10:38.314Z,2.43
2019-05-28T06:13:08.089Z,2.53
2019-05-28T06:15:37.574Z,2.37
2019-05-28T06:18:07.160Z,2.50
2019-05-28T06:20:37.182Z,2.73
2019-05-28T06:23:06.913Z,2.23
2019-05-28T06:25:36.323Z,2.20
2019-05-28T06:28:06.261Z,2.33
2019-05-28T06:30:35.855Z,2.27
2019-05-28T06:33:05.557Z,2.60
2019-05-28T06:35:35.423Z,2.47
2019-05-28T06:38:05.058Z,2.50
2019-05-28T06:40:34.677Z,2.30
2019-05-28T06:43:04.726Z,2.03
2019-05-28T06:45:34.803Z,2.23
2019-05-28T06:48:04.967Z,2.20
2019-05-28T06:50:34.725Z,2.80
2019-05-28T06:53:09.529Z,2.43
2019-05-28T06:55:41.772Z,2.07
2019-05-28T06:58:11.332Z,2.10
2019-05-28T07:00:41.512Z,2.27
2019-05-28T07:03:11.272Z,1.97
2019-05-28T07:05:45.528Z,2.03
2019-05-28T07:08:17.332Z,2.93
2019-05-28T07:10:57.122Z,2.60
2019-05-28T07:13:18.901Z,2.37
2019-05-28T07:15:51.583Z,1.90
2019-05-28T07:18:21.451Z,2.43
2019-05-28T07:20:53.809Z,2.30
2019-05-28T07:23:24.940Z,2.17
2019-05-28T07:25:54.826Z,2.40
2019-05-28T07:28:26.651Z,2.10
2019-05-28T07:30:57.865Z,2.00
2019-05-28T07:33:27.533Z,2.30
2019-05-28T07:35:57.450Z,2.80
2019-05-28T07:38:27.704Z,1.93
2019-05-28T07:40:57.909Z,2.07
2019-05-28T07:43:27.413Z,1.90
2019-05-28T07:45:57.624Z,1.93
2019-05-28T07:48:29.129Z,1.90
2019-05-28T07:50:58.907Z,2.23
2019-05-28T07:53:39.453Z,2.10
2019-05-28T07:56:00.772Z,1.83
2019-05-28T07:58:32.981Z,1.73
2019-05-28T08:01:07.699Z,2.40
2019-05-28T08:03:37.488Z,2.23
2019-05-28T08:06:07.192Z,1.90
2019-05-28T08:08:38.070Z,2.17
2019-05-28T08:11:07.864Z,1.97
2019-05-28T08:13:40.750Z,2.03
2019-05-28T08:16:18.157Z,2.20
2019-05-28T08:18:40.370Z,2.00
2019-05-28T08:21:10.200Z,1.70
2019-05-28T08:23:41.207Z,1.70
2019-05-28T08:26:11.052Z,2.00
2019-05-28T08:28:40.617Z,2.00
2019-05-28T08:31:16.515Z,1.93
2019-05-28T08:33:42.617Z,1.80
2019-05-28T08:36:12.552Z,2.00
2019-05-28T08:38:42.570Z,1.67
2019-05-28T08:41:12.423Z,2.00
2019-05-28T08:43:43.989Z,2.40
2019-05-28T08:46:13.974Z,1.90
2019-05-28T08:48:43.530Z,2.40
2019-05-28T08:51:13.524Z,1.80
2019-05-28T08:53:43.642Z,1.57
2019-05-28T08:56:13.604Z,1.73
2019-05-28T08:58:43.582Z,1.83
2019-05-28T09:01:13.955Z,1.93
2019-05-28T09:03:43.644Z,1.77
2019-05-28T09:06:14.611Z,1.80
2019-05-28T09:08:49.590Z,1.40
2019-05-28T09:11:21.224Z,1.93
2019-05-28T09:13:51.134Z,1.60
2019-05-28T09:16:21.400Z,1.80
2019-05-28T09:18:51.723Z,1.73
2019-05-28T09:21:22.225Z,1.80
2019-05-28T09:23:55.087Z,2.03
2019-05-28T09:26:25.025Z,1.83
2019-05-28T09:28:55.526Z,1.60
2019-05-28T09:31:27.487Z,1.87
2019-05-28T09:33:58.188Z,1.53
2019-05-28T09:36:28.391Z,1.50
2019-05-28T09:38:59.589Z,1.90
2019-05-28T09:41:35.334Z,1.60
2019-05-28T09:44:05.242Z,1.80
2019-05-28T09:46:35.014Z,2.10
2019-05-28T09:49:04.648Z,1.70
2019-05-28T09:51:34.530Z,1.57
2019-05-28T09:54:04.525Z,1.53
2019-05-28T09:56:34.159Z,1.50
2019-05-28T09:59:04.304Z,1.80
2019-05-28T10:01:37.359Z,1.80
2019-05-28T10:04:07.219Z,1.60
2019-05-28T10:06:41.575Z,1.80
2019-05-28T10:09:10.309Z,1.70
2019-05-28T10:11:43.063Z,1.70
2019-05-28T10:14:13.323Z,1.53
2019-05-28T10:16:43.846Z,1.37
2019-05-28T10:19:14.012Z,2.10
2019-05-28T10:21:43.524Z,1.40
2019-05-28T10:24:13.522Z,1.60
2019-05-28T10:26:43.595Z,1.67
2019-05-28T10:29:13.164Z,1.40
2019-05-28T10:31:42.874Z,1.90
2019-05-28T10:34:16.220Z,1.97
2019-05-28T10:36:46.821Z,2.10
2019-05-28T10:39:16.735Z,1.90
2019-05-28T10:41:49.189Z,1.90
2019-05-28T10:44:19.278Z,1.57
2019-05-28T10:46:53.938Z,1.90
2019-05-28T10:49:24.502Z,1.60
2019-05-28T10:51:57.796Z,1.93
2019-05-28T10:54:27.776Z,1.80
2019-05-28T10:56:59.437Z,2.07
2019-05-28T10:59:29.236Z,1.63
2019-05-28T11:02:00.831Z,2.00
2019-05-28T11:04:31.811Z,1.80
2019-05-28T11:07:02.332Z,2.07
2019-05-28T11:09:34.605Z,1.53
2019-05-28T11:12:05.090Z,1.47
2019-05-28T11:14:37.995Z,1.90
2019-05-28T11:17:08.071Z,1.43
2019-05-28T11:19:38.425Z,1.50
2019-05-28T11:22:10.577Z,1.53
2019-05-28T11:24:41.601Z,1.50
2019-05-28T11:27:11.352Z,1.90
2019-05-28T11:29:41.093Z,1.77
2019-05-28T11:32:11.546Z,1.60
2019-05-28T11:34:41.452Z,1.40
2019-05-28T11:37:13.935Z,1.80
2019-05-28T11:39:44.081Z,1.50
2019-05-28T11:42:13.750Z,1.60
2019-05-28T11:44:43.324Z,1.60
2019-05-28T11:47:14.564Z,1.93
2019-05-28T11:49:44.368Z,1.30
2019-05-28T11:52:14.035Z,1.27
2019-05-28T11:54:44.517Z,1.30
2019-05-28T11:57:14.506Z,1.80
2019-05-28T11:59:44.728Z,1.60
2019-05-28T12:02:15.924Z,1.70
2019-05-28T12:04:45.840Z,1.47
2019-05-28T12:07:25.942Z,1.63
2019-05-28T12:09:49.388Z,1.53
2019-05-28T12:12:19.272Z,1.60
2019-05-28T12:14:49.698Z,1.53
2019-05-28T12:17:37.944Z,1.70
2019-05-28T12:19:52.200Z,1.80
2019-05-28T12:22:27.296Z,2.03
2019-05-28T12:24:57.850Z,1.80
2019-05-28T12:27:27.480Z,1.60
2019-05-28T12:29:57.412Z,1.73
2019-05-28T12:32:27.145Z,1.70
2019-05-28T12:34:57.336Z,1.60
2019-05-28T12:37:46.352Z,1.67
2019-05-28T12:39:58.645Z,1.83
2019-05-28T12:42:29.145Z,1.20
2019-05-28T12:45:09.423Z,1.50
2019-05-28T12:47:30.786Z,1.63
2019-05-28T12:50:18.514Z,2.00
2019-05-28T12:52:33.716Z,1.80
2019-05-28T12:55:08.855Z,1.57
2019-05-28T12:57:38.944Z,1.60
2019-05-28T13:00:10.921Z,1.93
2019-05-28T13:02:41.081Z,1.50
2019-05-28T13:05:15.045Z,1.53
2019-05-28T13:07:45.132Z,1.53
2019-05-28T13:10:15.428Z,1.60
2019-05-28T13:12:45.522Z,1.50
2019-05-28T13:15:16.671Z,1.60
2019-05-28T13:17:46.713Z,1.60
2019-05-28T13:20:18.983Z,1.90
2019-05-28T13:22:48.669Z,1.90
2019-05-28T13:25:19.674Z,1.80
2019-05-28T13:27:49.539Z,1.40
2019-05-28T13:30:20.750Z,1.70
2019-05-28T13:32:50.533Z,3.37
2019-05-28T13:35:21.105Z,1.60
2019-05-28T13:37:50.743Z,2.03
2019-05-28T13:40:22.279Z,2.20
2019-05-28T13:42:52.499Z,1.90
2019-05-28T13:45:23.655Z,2.10
2019-05-28T13:47:53.357Z,2.00
2019-05-28T13:50:24.978Z,1.90
2019-05-28T13:52:54.534Z,1.80
2019-05-28T13:55:24.436Z,1.70
2019-05-28T13:57:54.318Z,1.83
2019-05-28T14:00:24.248Z,2.00
2019-05-28T14:02:54.075Z,1.80
2019-05-28T14:05:24.035Z,1.83
2019-05-28T14:07:53.497Z,1.90
2019-05-28T14:10:23.188Z,1.70
2019-05-28T14:12:53.152Z,1.50
2019-05-28T14:15:23.613Z,1.73
2019-05-28T14:17:53.354Z,2.00
2019-05-28T14:20:23.382Z,1.67
2019-05-28T14:22:53.505Z,1.93
2019-05-28T14:25:23.410Z,1.80
2019-05-28T14:27:53.306Z,1.80
2019-05-28T14:30:23.391Z,1.80
2019-05-28T14:32:53.511Z,1.70
2019-05-28T14:35:23.152Z,2.03
2019-05-28T14:37:52.750Z,1.80
2019-05-28T14:40:24.801Z,1.80
2019-05-28T14:42:54.145Z,2.10
2019-05-28T14:45:24.875Z,2.10
2019-05-28T14:47:55.854Z,2.27
2019-05-28T14:50:26.451Z,1.77
2019-05-28T14:52:56.325Z,2.20
2019-05-28T14:55:25.917Z,1.50
2019-05-28T14:57:56.334Z,1.50
2019-05-28T15:00:26.611Z,1.50
2019-05-28T15:02:56.375Z,1.60
2019-05-28T15:05:26.691Z,1.70
2019-05-28T15:07:57.106Z,2.00
2019-05-28T15:10:27.023Z,1.60
2019-05-28T15:12:57.446Z,1.43
2019-05-28T15:15:36.006Z,1.53
2019-05-28T15:17:58.901Z,1.63
2019-05-28T15:20:28.664Z,1.80
2019-05-28T15:22:58.717Z,2.07
2019-05-28T15:25:29.028Z,1.70
2019-05-28T15:27:58.676Z,1.87
2019-05-28T15:30:28.526Z,1.90
2019-05-28T15:32:58.550Z,2.20
2019-05-28T15:35:28.499Z,1.90
2019-05-28T15:37:58.583Z,1.80
2019-05-28T15:40:28.364Z,1.80
2019-05-28T15:43:06.215Z,1.77
2019-05-28T15:45:30.362Z,1.50
2019-05-28T15:48:00.243Z,1.60
2019-05-28T15:50:29.902Z,1.73
2019-05-28T15:52:59.854Z,1.70
2019-05-28T15:55:29.702Z,2.20
2019-05-28T15:57:59.471Z,1.70
2019-05-28T16:00:29.428Z,1.60
2019-05-28T16:02:59.022Z,1.70
2019-05-28T16:05:28.634Z,1.37
2019-05-28T16:07:58.696Z,1.90
2019-05-28T16:10:28.541Z,2.50
2019-05-28T16:12:58.437Z,1.90
2019-05-28T16:15:28.821Z,1.50
2019-05-28T16:17:58.812Z,1.90
2019-05-28T16:20:28.867Z,1.63
2019-05-28T16:22:59.002Z,1.83
2019-05-28T16:25:28.716Z,1.53
2019-05-28T16:27:58.564Z,1.60
2019-05-28T16:30:29.088Z,1.97
2019-05-28T16:32:58.791Z,1.87
2019-05-28T16:35:28.920Z,1.90
2019-05-28T16:37:59.005Z,1.50
2019-05-28T16:40:29.134Z,1.83
2019-05-28T16:42:58.960Z,1.67
2019-05-28T16:45:29.548Z,1.50
2019-05-28T16:47:59.399Z,1.60
2019-05-28T16:50:31.985Z,1.60
2019-05-28T16:53:02.021Z,1.70
2019-05-28T16:55:31.963Z,1.90
2019-05-28T16:58:02.076Z,1.50
2019-05-28T17:00:31.917Z,1.33
2019-05-28T17:03:01.791Z,1.40
2019-05-28T17:05:31.867Z,1.70
2019-05-28T17:08:02.020Z,1.30
2019-05-28T17:10:33.704Z,1.60
2019-05-28T17:13:03.728Z,1.47
2019-05-28T17:15:34.166Z,1.70
2019-05-28T17:18:04.190Z,1.87
2019-05-28T17:20:34.112Z,1.70
2019-05-28T17:23:04.002Z,1.73
2019-05-28T17:25:33.855Z,1.73
2019-05-28T17:28:03.933Z,1.67
2019-05-28T17:30:33.672Z,1.80
2019-05-28T17:33:03.895Z,1.87
2019-05-28T17:35:33.542Z,1.73
2019-05-28T17:38:03.340Z,1.50
2019-05-28T17:40:47.516Z,1.20
2019-05-28T17:43:05.159Z,1.60
2019-05-28T17:45:35.096Z,1.70
2019-05-28T17:48:05.327Z,1.50
2019-05-28T17:50:35.010Z,1.70
2019-05-28T17:53:05.647Z,1.70
2019-05-28T17:55:35.299Z,1.40
2019-05-28T17:58:05.478Z,1.50
2019-05-28T18:00:37.643Z,1.50
2019-05-28T18:03:07.469Z,1.50
2019-05-28T18:05:37.304Z,2.20
2019-05-28T18:08:11.165Z,1.33
2019-05-28T18:10:47.153Z,1.47
2019-05-28T18:13:17.332Z,1.50
2019-05-28T18:15:47.657Z,1.50
2019-05-28T18:18:22.502Z,1.67
2019-05-28T18:20:52.764Z,1.87
2019-05-28T18:23:22.648Z,1.87
2019-05-28T18:26:07.028Z,1.87
2019-05-28T18:28:37.291Z,1.67
2019-05-28T18:31:08.384Z,1.27
2019-05-28T18:33:43.475Z,1.50
2019-05-28T18:39:01.703Z,1.60
2019-05-28T18:41:32.138Z,1.50
2019-05-28T18:44:02.832Z,1.30
2019-05-28T18:46:33.342Z,1.77
2019-05-28T18:49:03.904Z,1.70
2019-05-28T18:51:38.732Z,1.53
2019-05-28T18:54:07.012Z,1.60
2019-05-28T18:56:37.555Z,1.50
2019-05-28T18:59:07.905Z,1.63
2019-05-28T19:01:40.377Z,1.40
2019-05-28T19:04:10.852Z,1.40
2019-05-28T19:06:41.777Z,1.50
2019-05-28T19:09:12.032Z,1.50
2019-05-28T19:11:42.551Z,1.67
2019-05-28T19:14:13.246Z,1.33
2019-05-28T19:16:45.166Z,1.50
2019-05-28T19:19:15.545Z,1.60
2019-05-28T19:21:45.657Z,1.43
2019-05-28T19:24:16.653Z,1.43
2019-05-28T19:26:47.315Z,1.93
2019-05-28T19:29:18.390Z,1.40
2019-05-28T19:31:48.773Z,1.80
2019-05-28T19:34:18.988Z,2.23
2019-05-28T19:36:49.828Z,1.83
2019-05-28T19:39:20.142Z,1.73
2019-05-28T19:41:54.528Z,1.90
2019-05-28T19:44:24.349Z,1.93
2019-05-28T19:46:55.661Z,1.93
2019-05-28T19:49:26.591Z,3.03
2019-05-28T19:51:56.763Z,2.00
2019-05-28T19:54:27.217Z,1.50
2019-05-28T19:56:57.330Z,1.90
2019-05-28T19:59:27.977Z,1.90
2019-05-28T20:01:58.428Z,2.10
2019-05-28T20:04:29.259Z,1.90
2019-05-28T20:06:59.413Z,1.80
2019-05-28T20:09:29.653Z,1.73
2019-05-28T20:12:11.444Z,2.20
2019-05-28T20:14:33.241Z,2.50
2019-05-28T20:17:03.620Z,1.73
2019-05-28T20:19:36.253Z,1.83
2019-05-28T20:22:06.913Z,2.10
2019-05-28T20:24:37.283Z,2.03
2019-05-28T20:27:08.044Z,1.97
2019-05-28T20:29:38.616Z,1.90
2019-05-28T20:32:10.357Z,1.90
2019-05-28T20:34:40.401Z,2.13
2019-05-28T20:37:11.118Z,1.90
2019-05-28T20:39:41.222Z,2.50
2019-05-28T20:42:26.161Z,2.00
2019-05-28T20:44:43.783Z,1.97
2019-05-28T20:47:14.612Z,2.03
2019-05-28T20:49:46.708Z,2.20
2019-05-28T20:52:17.507Z,2.63
2019-05-28T20:54:51.493Z,2.40
2019-05-28T20:57:22.499Z,1.70
2019-05-28T20:59:53.999Z,2.50
2019-05-28T21:02:23.995Z,2.00
2019-05-28T21:04:56.551Z,2.50
2019-05-28T21:07:26.970Z,2.37
2019-05-28T21:09:57.100Z,2.10
2019-05-28T21:12:40.620Z,1.90
2019-05-28T21:14:59.818Z,1.90
2019-05-28T21:17:32.446Z,2.53
2019-05-28T21:20:04.340Z,2.30
2019-05-28T21:22:34.299Z,2.20
2019-05-28T21:25:07.985Z,2.60
2019-05-28T21:27:38.356Z,2.30
2019-05-28T21:30:11.409Z,2.13
2019-05-28T21:32:41.752Z,2.70
2019-05-28T21:35:12.604Z,2.00
2019-05-28T21:37:42.872Z,2.40
2019-05-28T21:40:19.297Z,2.63
2019-05-28T21:42:59.290Z,2.37
2019-05-28T21:45:22.904Z,2.23
2019-05-28T21:47:54.417Z,2.27
2019-05-28T21:50:24.623Z,2.23
2019-05-28T21:52:55.028Z,2.37
2019-05-28T21:55:26.217Z,2.43
2019-05-28T21:57:56.014Z,2.53
2019-05-28T22:00:51.855Z,2.33
2019-05-28T22:03:21.942Z,2.80
2019-05-28T22:05:51.941Z,3.20
2019-05-28T22:08:22.328Z,3.03
2019-05-28T22:10:52.749Z,2.50
2019-05-28T22:13:23.417Z,3.07
2019-05-28T22:15:53.780Z,3.23
2019-05-28T22:18:24.644Z,2.37
2019-05-28T22:20:54.580Z,2.90
2019-05-28T22:23:24.622Z,2.83
2019-05-28T22:25:54.784Z,3.10
2019-05-28T22:28:24.905Z,2.90
2019-05-28T22:30:55.613Z,3.20
2019-05-28T22:33:25.972Z,3.00
2019-05-28T22:35:57.059Z,2.67
2019-05-28T22:38:27.671Z,2.90
2019-05-28T22:40:58.316Z,3.30
2019-05-28T22:43:31.465Z,3.57
2019-05-28T22:46:01.243Z,3.00
2019-05-28T22:48:31.500Z,3.07
2019-05-28T22:51:01.551Z,2.93
2019-05-28T22:53:31.402Z,2.50
2019-05-28T22:56:04.024Z,2.20
2019-05-28T22:58:33.039Z,1.90
2019-05-28T23:01:04.544Z,1.30
2019-05-28T23:03:34.250Z,1.20
2019-05-28T23:06:05.428Z,1.30
2019-05-28T23:08:35.414Z,0.90
2019-05-28T23:11:06.886Z,1.10
2019-05-28T23:13:46.581Z,1.13
2019-05-28T23:16:10.335Z,1.00
2019-05-28T23:18:40.340Z,1.00
2019-05-28T23:21:11.034Z,1.20
2019-05-28T23:23:40.874Z,1.20
2019-05-28T23:26:11.539Z,1.10
2019-05-28T23:28:41.485Z,1.00
2019-05-28T23:31:12.159Z,1.10
2019-05-28T23:33:42.173Z,0.90
2019-05-28T23:36:12.775Z,1.30
2019-05-28T23:38:42.676Z,1.20
2019-05-28T23:41:13.504Z,0.90
2019-05-28T23:43:43.227Z,0.80
2019-05-28T23:46:14.200Z,0.90
2019-05-28T23:48:44.298Z,1.17
2019-05-28T23:51:14.698Z,1.40
2019-05-28T23:53:44.581Z,1.20
2019-05-28T23:56:15.207Z,0.90
2019-05-28T23:58:45.262Z,1.10
